createdAt,value
2022-10-03T12:58:55.098Z,12.14
2022-10-03T13:00:30.579Z,12.05
2022-10-03T13:09:38.868Z,12.19
2022-10-03T13:33:51.831Z,12.52
2022-10-03T13:36:24.418Z,12.55
2022-10-03T13:39:18.671Z,12.55
2022-10-03T13:42:09.789Z,12.55
2022-10-03T13:44:49.625Z,12.50
2022-10-03T13:47:28.735Z,12.29
2022-10-03T13:50:00.639Z,11.98
2022-10-03T13:52:39.218Z,11.74
2022-10-03T13:55:25.062Z,11.51
2022-10-03T13:58:35.618Z,11.37
2022-10-03T14:01:23.749Z,11.30
2022-10-03T14:04:40.993Z,11.24
2022-10-03T14:07:25.380Z,11.20
2022-10-03T14:10:29.639Z,11.18
2022-10-03T14:13:25.973Z,11.17
2022-10-03T14:16:40.979Z,11.16
2022-10-03T14:19:13.399Z,11.15
2022-10-03T14:22:14.222Z,11.17
2022-10-03T14:25:51.441Z,11.24
2022-10-03T14:29:17.101Z,11.25
2022-10-03T14:36:20.315Z,11.33
2022-10-03T14:39:36.611Z,11.32
2022-10-03T15:51:31.392Z,11.30
2022-10-03T15:56:23.273Z,11.24
2022-10-03T16:55:46.888Z,10.14
2022-10-03T17:01:36.001Z,10.04
2022-10-03T18:21:07.156Z,10.15
2022-10-03T18:24:08.765Z,10.14
2022-10-03T18:41:36.709Z,9.92
2022-10-03T18:46:02.564Z,9.91
2022-10-03T18:47:35.545Z,9.89
2022-10-03T18:50:38.426Z,9.88
2022-10-03T18:53:29.323Z,9.88
2022-10-03T18:56:07.540Z,9.83
2022-10-03T18:58:50.258Z,9.87
2022-10-03T19:01:30.450Z,9.88
2022-10-03T19:04:09.106Z,9.88
2022-10-03T19:06:37.977Z,9.87
2022-10-03T19:09:23.928Z,9.92
2022-10-03T19:12:10.443Z,9.93
2022-10-03T19:15:19.859Z,9.97
2022-10-03T19:18:12.211Z,9.95
2022-10-03T19:20:41.707Z,10.03
2022-10-03T19:23:29.275Z,10.06
2022-10-03T19:27:05.454Z,10.08
2022-10-03T19:29:55.486Z,10.10
2022-10-03T19:32:42.088Z,10.12
2022-10-03T19:35:22.522Z,10.13
2022-10-03T19:37:55.616Z,10.15
2022-10-03T19:41:12.659Z,10.17
2022-10-03T19:44:01.703Z,10.18
2022-10-03T19:47:04.697Z,10.18
2022-10-03T19:49:43.390Z,10.17
2022-10-03T19:52:36.701Z,10.17
2022-10-03T19:55:08.766Z,10.17
2022-10-03T19:57:44.962Z,10.17
2022-10-03T20:00:17.580Z,10.17
2022-10-03T20:02:55.227Z,10.16
2022-10-03T20:05:26.812Z,10.14
2022-10-03T20:09:00.776Z,10.12
2022-10-03T20:12:19.544Z,10.10
2022-10-03T20:15:06.342Z,10.07
2022-10-03T20:23:42.605Z,10.17
